Time;durP1;ratioP1;P1;durP2;ratioP2;P2;SDS_P1;SDS_P2;PMS_P1;PMS_P2;Temp;Humidity;BMP_temperature;BMP_pressure;BME280_temperature;BME280_humidity;BME280_pressure;Samples;Min_cycle;Max_cycle;Signal;HPM_P1;HPM_P2
2022/07/06 00:00:49;;;;;;;2.47;1.50;;;13.00;99.90;;;;;;5117716;28;20194;-39
2022/07/06 00:03:15;;;;;;;4.67;1.27;;;12.90;99.90;;;;;;5114976;28;20250;-41
2022/07/06 00:05:41;;;;;;;1.40;1.10;;;12.90;99.90;;;;;;5113899;28;20537;-41
2022/07/06 00:08:07;;;;;;;1.77;1.23;;;12.80;99.90;;;;;;5114706;28;20185;-39
2022/07/06 00:10:32;;;;;;;2.77;1.30;;;12.80;99.90;;;;;;5114445;28;20197;-40
2022/07/06 00:12:58;;;;;;;3.07;1.27;;;12.80;99.90;;;;;;5114854;28;20254;-40
2022/07/06 00:15:23;;;;;;;3.30;1.40;;;12.80;99.90;;;;;;5116291;28;20208;-40
2022/07/06 00:17:49;;;;;;;4.00;1.60;;;12.70;99.90;;;;;;5114237;28;20253;-39
2022/07/06 00:20:15;;;;;;;3.17;1.40;;;12.70;99.90;;;;;;5113572;28;20194;-39
2022/07/06 00:22:40;;;;;;;3.23;1.70;;;12.70;99.90;;;;;;5114022;28;20178;-40
2022/07/06 00:25:06;;;;;;;3.07;1.60;;;12.70;99.90;;;;;;5114184;28;20177;-39
2022/07/06 00:27:32;;;;;;;3.87;2.07;;;12.70;99.90;;;;;;5113826;28;20174;-39
2022/07/06 00:29:57;;;;;;;5.37;1.43;;;12.60;99.90;;;;;;5113994;28;20201;-40
2022/07/06 00:32:23;;;;;;;2.20;1.50;;;12.50;99.90;;;;;;5113973;28;20178;-40
2022/07/06 00:34:48;;;;;;;3.03;1.20;;;12.50;99.90;;;;;;5114606;28;20202;-41
2022/07/06 00:37:15;;;;;;;4.20;1.47;;;12.50;99.90;;;;;;5113741;28;20209;-39
2022/07/06 00:39:41;;;;;;;3.43;1.70;;;12.40;99.90;;;;;;5113483;28;20197;-41
2022/07/06 00:42:06;;;;;;;8.60;1.80;;;12.40;99.90;;;;;;5113416;28;20249;-41
2022/07/06 00:44:33;;;;;;;2.00;1.50;;;12.40;99.90;;;;;;5113359;28;20206;-41
2022/07/06 00:46:59;;;;;;;2.40;1.53;;;12.30;99.90;;;;;;5113995;28;20195;-45
2022/07/06 00:52:30;;;;;;;2.03;1.57;;;12.20;99.90;;;;;;5050663;28;20185;-43
2022/07/06 00:54:55;;;;;;;4.37;1.57;;;12.20;99.90;;;;;;5050633;28;20184;-43
2022/07/06 00:57:21;;;;;;;3.83;1.70;;;12.20;99.90;;;;;;5080844;28;20291;-45
2022/07/06 00:59:46;;;;;;;3.50;1.87;;;12.20;99.90;;;;;;5113658;28;20198;-43
2022/07/06 01:02:12;;;;;;;3.57;1.67;;;12.10;99.90;;;;;;5114056;28;20178;-44
2022/07/06 01:04:38;;;;;;;3.90;1.70;;;12.10;99.90;;;;;;5113246;28;20178;-43
2022/07/06 01:07:04;;;;;;;4.00;1.80;;;12.10;99.90;;;;;;5113418;28;20171;-43
2022/07/06 01:09:29;;;;;;;3.57;1.80;;;12.00;99.90;;;;;;5113126;28;20239;-43
2022/07/06 01:11:55;;;;;;;3.00;1.70;;;12.00;99.90;;;;;;5113142;28;20548;-42
2022/07/06 01:14:21;;;;;;;3.03;1.60;;;12.00;99.90;;;;;;5114212;28;20256;-44
2022/07/06 01:16:47;;;;;;;4.07;1.60;;;12.00;99.90;;;;;;5113831;28;20236;-44
2022/07/06 01:19:13;;;;;;;3.40;1.60;;;12.00;99.90;;;;;;5117150;28;20283;-45
2022/07/06 01:21:38;;;;;;;3.10;1.77;;;11.90;99.90;;;;;;5116710;28;20523;-43
2022/07/06 01:24:04;;;;;;;3.70;1.50;;;11.90;99.90;;;;;;5116933;28;20264;-43
2022/07/06 01:26:30;;;;;;;1.87;1.40;;;11.80;99.90;;;;;;5117308;28;20203;-44
2022/07/06 01:28:56;;;;;;;3.37;1.40;;;11.80;99.90;;;;;;5116812;28;20698;-44
2022/07/06 01:31:24;;;;;;;1.97;1.40;;;11.80;99.90;;;;;;5116968;28;20178;-42
2022/07/06 01:33:51;;;;;;;3.13;1.67;;;11.60;99.90;;;;;;5116779;28;20182;-43
2022/07/06 01:36:17;;;;;;;3.70;1.40;;;11.60;99.90;;;;;;5119158;28;20205;-43
2022/07/06 01:38:53;;;;;;;2.93;1.50;;;11.60;99.90;;;;;;5116796;28;20178;-42
2022/07/06 01:41:20;;;;;;;3.07;1.57;;;11.50;99.90;;;;;;5116659;28;20244;-42
2022/07/06 01:43:46;;;;;;;3.07;1.40;;;11.50;99.90;;;;;;5116891;28;20590;-43
2022/07/06 01:46:12;;;;;;;2.33;1.70;;;11.40;99.90;;;;;;5116778;28;20624;-43
2022/07/06 01:48:37;;;;;;;2.27;1.40;;;11.40;99.90;;;;;;5116174;28;20219;-44
2022/07/06 01:51:04;;;;;;;1.97;1.50;;;11.30;99.90;;;;;;5097896;28;20181;-43
2022/07/06 01:53:30;;;;;;;2.63;1.60;;;11.30;99.90;;;;;;5116063;28;20633;-43
2022/07/06 01:55:55;;;;;;;2.97;1.80;;;11.20;99.90;;;;;;5116527;28;20185;-44
2022/07/06 01:58:22;;;;;;;3.90;1.53;;;11.20;99.90;;;;;;5117308;28;20181;-43
2022/07/06 02:00:47;;;;;;;3.63;1.80;;;11.20;99.90;;;;;;5115824;28;20194;-42
2022/07/06 02:03:13;;;;;;;2.70;1.40;;;11.10;99.90;;;;;;5115917;28;20170;-43
2022/07/06 02:05:39;;;;;;;1.70;1.50;;;11.10;99.90;;;;;;5115953;28;20166;-44
2022/07/06 02:08:04;;;;;;;1.90;1.40;;;11.10;99.90;;;;;;5115753;28;20184;-45
2022/07/06 02:10:30;;;;;;;4.27;1.93;;;11.00;99.90;;;;;;5115948;28;20331;-45
2022/07/06 02:12:55;;;;;;;3.47;1.83;;;10.90;99.90;;;;;;5116193;28;20242;-43
2022/07/06 02:15:21;;;;;;;5.43;2.17;;;10.90;99.90;;;;;;5115656;28;20181;-42
2022/07/06 02:17:46;;;;;;;1.60;1.50;;;10.90;99.90;;;;;;5115603;28;20198;-41
2022/07/06 02:20:12;;;;;;;1.70;1.60;;;10.90;99.90;;;;;;5115447;28;20657;-43
2022/07/06 02:22:38;;;;;;;1.83;1.50;;;10.90;99.90;;;;;;5115804;28;20181;-43
2022/07/06 02:25:04;;;;;;;1.70;1.60;;;10.90;99.90;;;;;;5115359;28;20541;-43
2022/07/06 02:27:30;;;;;;;4.17;2.00;;;10.90;99.90;;;;;;5115470;28;20235;-44
2022/07/06 02:29:56;;;;;;;2.83;1.70;;;10.80;99.90;;;;;;5115073;28;20214;-43
2022/07/06 02:32:22;;;;;;;3.40;1.90;;;10.80;99.90;;;;;;5116977;28;20246;-43
2022/07/06 02:34:47;;;;;;;4.50;2.10;;;10.80;99.90;;;;;;5118602;28;20170;-43
2022/07/06 02:37:13;;;;;;;3.90;2.23;;;10.70;99.90;;;;;;5118433;28;20217;-43
2022/07/06 02:39:38;;;;;;;3.90;1.93;;;10.60;99.90;;;;;;5120818;28;20198;-43
2022/07/06 02:42:04;;;;;;;1.83;1.73;;;10.70;99.90;;;;;;5124582;28;20178;-43
2022/07/06 02:44:30;;;;;;;4.00;2.20;;;10.60;99.90;;;;;;5121406;28;20170;-44
2022/07/06 02:46:55;;;;;;;3.47;1.80;;;10.60;99.90;;;;;;5122328;28;20174;-43
2022/07/06 02:49:21;;;;;;;2.47;2.03;;;10.50;99.90;;;;;;5118398;28;20194;-43
2022/07/06 02:51:46;;;;;;;3.97;2.13;;;10.50;99.90;;;;;;5117099;28;20185;-41
2022/07/06 02:54:12;;;;;;;3.10;2.30;;;10.50;99.90;;;;;;5115264;28;20520;-41
2022/07/06 02:56:37;;;;;;;3.67;2.70;;;10.40;99.90;;;;;;5115103;28;20235;-43
2022/07/06 02:59:03;;;;;;;5.37;2.67;;;10.40;99.90;;;;;;5114999;28;20211;-43
2022/07/06 03:01:29;;;;;;;3.07;2.33;;;10.30;99.90;;;;;;5114935;28;20174;-44
2022/07/06 03:03:54;;;;;;;3.67;2.27;;;10.30;99.90;;;;;;5096465;28;20177;-43
2022/07/06 03:06:20;;;;;;;3.40;2.40;;;10.30;99.90;;;;;;5114566;28;20187;-43
2022/07/06 03:08:45;;;;;;;3.47;2.60;;;10.30;99.90;;;;;;5114522;28;20214;-42
2022/07/06 03:11:11;;;;;;;3.33;2.30;;;10.20;99.90;;;;;;5115037;28;20174;-42
2022/07/06 03:13:37;;;;;;;4.27;2.47;;;10.20;99.90;;;;;;5115243;28;20177;-41
2022/07/06 03:16:02;;;;;;;4.90;2.30;;;10.20;99.90;;;;;;5117737;28;20205;-43
2022/07/06 03:18:28;;;;;;;7.37;2.73;;;10.20;99.90;;;;;;5117776;28;20188;-43
2022/07/06 03:20:53;;;;;;;4.63;2.10;;;10.10;99.90;;;;;;5117299;28;20182;-42
2022/07/06 03:23:19;;;;;;;5.27;2.37;;;10.10;99.90;;;;;;5118382;28;20182;-43
2022/07/06 03:25:45;;;;;;;3.60;2.30;;;10.10;99.90;;;;;;5117740;28;20181;-43
2022/07/06 03:28:11;;;;;;;4.93;2.67;;;10.00;99.90;;;;;;5099176;28;20178;-40
2022/07/06 03:30:37;;;;;;;6.17;2.83;;;10.00;99.90;;;;;;5117419;28;20198;-44
2022/07/06 03:33:02;;;;;;;7.33;2.43;;;10.00;99.90;;;;;;5099397;28;20176;-44
2022/07/06 03:35:28;;;;;;;3.80;2.30;;;10.00;99.90;;;;;;5117790;28;20318;-44
2022/07/06 03:37:54;;;;;;;5.67;2.60;;;9.90;99.90;;;;;;5117397;28;20199;-44
2022/07/06 03:40:19;;;;;;;4.17;2.47;;;9.90;99.90;;;;;;5099511;28;20379;-42
2022/07/06 03:42:45;;;;;;;5.53;2.70;;;9.90;99.90;;;;;;5117655;28;20181;-42
2022/07/06 03:45:11;;;;;;;4.87;2.47;;;9.90;99.90;;;;;;5117780;28;20170;-43
2022/07/06 03:47:36;;;;;;;3.90;2.83;;;9.90;99.90;;;;;;5117968;28;20182;-43
2022/07/06 03:50:03;;;;;;;4.60;2.63;;;9.90;99.90;;;;;;5118223;28;20197;-43
2022/07/06 03:52:28;;;;;;;5.97;2.90;;;9.80;99.90;;;;;;5118129;28;20189;-43
2022/07/06 03:54:55;;;;;;;5.37;3.20;;;9.80;99.90;;;;;;5118493;28;20215;-42
2022/07/06 03:57:21;;;;;;;4.40;3.07;;;9.80;99.90;;;;;;5118201;28;20585;-41
2022/07/06 03:59:47;;;;;;;5.97;3.07;;;9.80;99.90;;;;;;5113880;28;20215;-40
2022/07/06 04:02:13;;;;;;;7.33;3.03;;;9.80;99.90;;;;;;5113862;28;20203;-38
2022/07/06 04:04:38;;;;;;;4.47;3.17;;;9.80;99.90;;;;;;5113998;28;20534;-39
2022/07/06 04:07:04;;;;;;;4.27;2.73;;;9.80;99.90;;;;;;5114192;28;20687;-41
2022/07/06 04:09:30;;;;;;;3.97;2.93;;;9.80;99.90;;;;;;5113715;28;20281;-40
2022/07/06 04:11:55;;;;;;;3.53;2.63;;;9.80;99.90;;;;;;5113806;28;20185;-40
2022/07/06 04:14:21;;;;;;;6.73;3.20;;;9.80;99.90;;;;;;5113864;28;20180;-40
2022/07/06 04:16:47;;;;;;;6.10;3.50;;;9.80;99.90;;;;;;5113875;28;20277;-40
2022/07/06 04:19:13;;;;;;;6.03;3.43;;;9.80;99.90;;;;;;5113821;28;20191;-40
2022/07/06 04:21:38;;;;;;;5.20;3.73;;;9.80;99.90;;;;;;5113891;28;20579;-40
2022/07/06 04:24:04;;;;;;;7.97;2.97;;;9.80;99.90;;;;;;5113648;28;20172;-41
2022/07/06 04:26:30;;;;;;;8.23;2.93;;;9.80;99.90;;;;;;5113961;28;20191;-41
2022/07/06 04:28:56;;;;;;;5.17;3.57;;;9.90;99.90;;;;;;5113973;28;20203;-41
2022/07/06 04:31:21;;;;;;;5.43;3.27;;;9.90;99.90;;;;;;5114467;28;20236;-40
2022/07/06 04:33:47;;;;;;;10.63;3.47;;;9.90;99.90;;;;;;5115316;28;20259;-41
2022/07/06 04:36:13;;;;;;;10.30;3.37;;;10.00;99.90;;;;;;5114397;28;20191;-38
2022/07/06 04:38:38;;;;;;;10.73;4.10;;;10.00;99.90;;;;;;5095333;28;20183;-41
2022/07/06 04:41:04;;;;;;;6.67;3.43;;;10.10;99.90;;;;;;5114405;28;20262;-41
2022/07/06 04:43:30;;;;;;;6.60;3.83;;;10.10;99.90;;;;;;5116121;28;20178;-41
2022/07/06 04:45:55;;;;;;;7.70;3.90;;;10.20;99.90;;;;;;5113783;28;20181;-40
2022/07/06 04:48:21;;;;;;;5.30;3.17;;;10.20;99.90;;;;;;5113683;28;20280;-39
2022/07/06 04:50:46;;;;;;;9.30;3.60;;;10.30;99.90;;;;;;5113566;28;20196;-38
2022/07/06 04:53:12;;;;;;;8.50;3.70;;;10.40;99.90;;;;;;5116061;28;20180;-39
2022/07/06 04:55:38;;;;;;;6.53;3.70;;;10.50;99.90;;;;;;5117462;28;20216;-39
2022/07/06 04:58:03;;;;;;;6.80;3.70;;;10.50;99.90;;;;;;5117569;28;20261;-40
2022/07/06 05:00:29;;;;;;;10.10;4.30;;;10.60;99.90;;;;;;5117255;28;20750;-39
2022/07/06 05:02:55;;;;;;;5.80;4.03;;;10.70;99.90;;;;;;5117199;28;20267;-38
2022/07/06 05:05:20;;;;;;;11.17;4.50;;;10.90;99.90;;;;;;5098818;28;20193;-40
2022/07/06 05:07:46;;;;;;;5.33;3.70;;;10.90;99.90;;;;;;5116978;28;20288;-40
2022/07/06 05:10:12;;;;;;;7.60;4.23;;;11.00;99.90;;;;;;5119789;28;20197;-41
2022/07/06 05:12:38;;;;;;;8.27;4.47;;;11.00;99.90;;;;;;5117332;28;20199;-38
2022/07/06 05:15:05;;;;;;;4.73;3.93;;;11.20;99.90;;;;;;5116982;28;20187;-37
2022/07/06 05:17:30;;;;;;;8.27;4.80;;;11.20;99.90;;;;;;5118092;28;20607;-40
2022/07/06 05:19:56;;;;;;;11.00;4.70;;;11.30;99.90;;;;;;5118312;28;20229;-39
2022/07/06 05:22:22;;;;;;;6.30;4.50;;;11.40;99.90;;;;;;5116988;28;20670;-41
2022/07/06 05:24:48;;;;;;;6.93;4.57;;;11.50;99.90;;;;;;5117012;28;20216;-38
2022/07/06 05:27:13;;;;;;;8.73;4.90;;;11.50;99.90;;;;;;5116851;28;20203;-41
2022/07/06 05:29:39;;;;;;;8.83;5.23;;;11.60;99.90;;;;;;5116562;28;20194;-40
2022/07/06 05:32:05;;;;;;;5.70;4.40;;;11.60;99.90;;;;;;5116639;28;20176;-41
2022/07/06 05:34:30;;;;;;;8.20;4.97;;;11.70;99.90;;;;;;5116716;28;20303;-41
2022/07/06 05:36:56;;;;;;;9.03;4.53;;;11.80;99.90;;;;;;5116368;28;20306;-39
2022/07/06 05:39:23;;;;;;;7.50;4.57;;;11.90;99.90;;;;;;5116570;28;20207;-40
2022/07/06 05:41:49;;;;;;;6.50;4.37;;;11.90;99.90;;;;;;5116953;28;20236;-38
2022/07/06 05:44:14;;;;;;;10.60;4.37;;;12.00;99.90;;;;;;5116288;28;20196;-37
2022/07/06 05:46:40;;;;;;;9.17;4.83;;;12.20;99.90;;;;;;5116279;28;20212;-39
2022/07/06 05:51:50;;;;;;;7.57;4.00;;;12.40;99.90;;;;;;5116859;28;20171;-38
2022/07/06 05:54:16;;;;;;;10.67;4.20;;;12.60;99.90;;;;;;5116442;28;20184;-41
2022/07/06 05:56:41;;;;;;;7.03;3.90;;;12.70;99.90;;;;;;5116117;28;20185;-37
2022/07/06 05:59:07;;;;;;;9.40;4.17;;;12.90;99.90;;;;;;5116335;28;20216;-40
2022/07/06 06:01:32;;;;;;;7.33;4.20;;;13.00;99.90;;;;;;5116073;28;20203;-38
2022/07/06 06:03:59;;;;;;;6.73;4.00;;;13.10;99.90;;;;;;5098493;28;20198;-40
2022/07/06 06:06:25;;;;;;;11.07;4.00;;;13.20;99.90;;;;;;5116119;28;20212;-36
2022/07/06 06:08:51;;;;;;;8.47;3.77;;;13.20;99.90;;;;;;5115862;28;20196;-39
2022/07/06 06:11:17;;;;;;;6.17;4.33;;;13.20;99.90;;;;;;5115867;28;20185;-38
2022/07/06 06:13:42;;;;;;;6.13;3.57;;;13.40;99.90;;;;;;5115986;28;20166;-40
2022/07/06 06:16:08;;;;;;;6.67;3.90;;;13.60;99.90;;;;;;5116001;28;20547;-38
2022/07/06 06:18:34;;;;;;;4.63;3.93;;;13.70;99.90;;;;;;5115706;28;20249;-38
2022/07/06 06:20:59;;;;;;;4.20;3.63;;;14.00;99.90;;;;;;5115921;28;20629;-38
2022/07/06 06:23:25;;;;;;;7.70;3.70;;;14.30;99.90;;;;;;5115612;28;20181;-40
2022/07/06 06:25:51;;;;;;;6.50;2.77;;;14.70;99.90;;;;;;5115782;28;20625;-40
2022/07/06 06:28:16;;;;;;;4.77;2.87;;;15.00;99.90;;;;;;5115752;28;20193;-40
2022/07/06 06:30:42;;;;;;;6.13;2.77;;;15.10;99.90;;;;;;5115657;28;20194;-40
2022/07/06 06:33:12;;;;;;;3.20;2.20;;;15.20;99.90;;;;;;5115477;28;20235;-41
2022/07/06 06:35:45;;;;;;;4.97;2.00;;;15.40;99.90;;;;;;5115237;28;20205;-39
2022/07/06 06:38:12;;;;;;;3.40;2.10;;;15.50;99.90;;;;;;5115517;28;20167;-40
2022/07/06 06:40:38;;;;;;;5.07;2.60;;;15.60;99.90;;;;;;5115207;28;20237;-39
2022/07/06 06:43:04;;;;;;;3.97;2.20;;;15.70;99.90;;;;;;5115573;28;20606;-40
2022/07/06 06:45:29;;;;;;;4.40;2.13;;;15.70;99.90;;;;;;5115253;28;20196;-41
2022/07/06 06:47:55;;;;;;;3.50;1.40;;;15.90;99.90;;;;;;5115345;28;20670;-40
2022/07/06 06:50:22;;;;;;;3.03;1.67;;;16.10;99.90;;;;;;5115106;28;20193;-39
2022/07/06 06:52:48;;;;;;;4.13;1.77;;;16.10;99.90;;;;;;5116049;28;20626;-39
2022/07/06 06:55:13;;;;;;;3.53;1.33;;;16.20;99.90;;;;;;5115106;28;20167;-40
2022/07/06 06:57:39;;;;;;;2.93;1.00;;;16.30;99.90;;;;;;5115297;28;20182;-40
2022/07/06 07:00:05;;;;;;;1.27;0.90;;;16.30;99.90;;;;;;5096651;28;20206;-39
2022/07/06 07:02:31;;;;;;;1.37;0.67;;;16.30;99.90;;;;;;5114836;28;20189;-40
2022/07/06 07:04:57;;;;;;;3.50;0.80;;;16.20;99.90;;;;;;5114801;28;20214;-38
2022/07/06 07:07:22;;;;;;;3.53;1.00;;;16.20;99.90;;;;;;5115266;28;20198;-41
2022/07/06 07:09:48;;;;;;;2.10;1.07;;;16.30;99.90;;;;;;5114909;28;20314;-40
2022/07/06 07:12:14;;;;;;;1.27;0.73;;;16.40;99.90;;;;;;5114680;28;20174;-40
2022/07/06 07:14:41;;;;;;;1.67;0.70;;;16.30;99.90;;;;;;5114317;28;20162;-40
2022/07/06 07:17:06;;;;;;;3.23;0.70;;;16.20;99.90;;;;;;5114990;28;20664;-39
2022/07/06 07:19:32;;;;;;;3.97;1.07;;;16.30;99.90;;;;;;5114528;28;20221;-39
2022/07/06 07:21:57;;;;;;;1.00;0.90;;;16.40;99.90;;;;;;5114572;28;20560;-39
2022/07/06 07:24:23;;;;;;;1.00;0.73;;;16.40;99.90;;;;;;5114515;28;20200;-39
2022/07/06 07:26:48;;;;;;;2.57;0.80;;;16.30;99.90;;;;;;5114614;28;20309;-38
2022/07/06 07:29:14;;;;;;;2.40;1.00;;;16.30;99.90;;;;;;5114461;28;20194;-37
2022/07/06 07:31:39;;;;;;;2.13;1.07;;;16.30;99.90;;;;;;5114263;28;20234;-40
2022/07/06 07:34:05;;;;;;;2.07;0.90;;;16.40;99.90;;;;;;5114246;28;20170;-39
2022/07/06 07:36:31;;;;;;;1.97;1.00;;;16.50;99.90;;;;;;5114188;28;20186;-40
2022/07/06 07:38:56;;;;;;;2.53;0.77;;;16.70;99.90;;;;;;5114141;28;20676;-36
2022/07/06 07:41:22;;;;;;;2.90;1.10;;;17.00;99.90;;;;;;5114136;28;20174;-38
2022/07/06 07:43:47;;;;;;;1.07;0.70;;;17.20;99.90;;;;;;5114153;28;20181;-39
2022/07/06 07:46:13;;;;;;;2.10;1.10;;;17.50;99.90;;;;;;5114111;28;20565;-41
2022/07/06 07:48:38;;;;;;;1.03;0.90;;;17.70;99.90;;;;;;5114029;28;20178;-39
2022/07/06 07:51:04;;;;;;;1.77;0.90;;;17.80;99.90;;;;;;5114364;28;20241;-40
2022/07/06 07:53:30;;;;;;;1.20;0.60;;;17.70;99.90;;;;;;5114270;28;20174;-39
2022/07/06 07:55:55;;;;;;;1.80;0.80;;;17.60;99.90;;;;;;5095645;28;20634;-40
2022/07/06 07:58:21;;;;;;;4.93;1.10;;;17.40;99.90;;;;;;5113910;28;20178;-40
2022/07/06 08:00:46;;;;;;;2.70;0.70;;;17.30;99.90;;;;;;5113875;28;20255;-39
2022/07/06 08:03:12;;;;;;;1.23;0.80;;;17.30;99.90;;;;;;5114116;28;20637;-40
2022/07/06 08:05:38;;;;;;;4.97;0.80;;;17.10;99.90;;;;;;5113838;28;20174;-39
2022/07/06 08:08:04;;;;;;;0.93;0.47;;;17.00;99.90;;;;;;5113959;28;20237;-40
2022/07/06 08:10:30;;;;;;;1.83;0.70;;;17.00;99.90;;;;;;5095486;28;20232;-36
2022/07/06 08:12:56;;;;;;;2.67;0.90;;;17.00;99.90;;;;;;5114074;28;20226;-39
2022/07/06 08:15:21;;;;;;;2.83;0.87;;;17.00;99.90;;;;;;5113769;28;20206;-38
2022/07/06 08:17:47;;;;;;;1.50;0.80;;;17.10;99.90;;;;;;5113759;28;20174;-40
2022/07/06 08:20:13;;;;;;;0.80;0.70;;;17.10;99.90;;;;;;5113675;28;20202;-40
2022/07/06 08:22:39;;;;;;;0.67;0.50;;;17.00;99.90;;;;;;5095537;28;20268;-41
2022/07/06 08:25:05;;;;;;;3.10;0.70;;;17.00;99.90;;;;;;5113747;28;20261;-41
2022/07/06 08:27:31;;;;;;;2.50;0.87;;;17.00;99.90;;;;;;5115119;28;20205;-38
2022/07/06 08:29:57;;;;;;;1.47;0.60;;;17.10;99.90;;;;;;5117992;28;20201;-41
2022/07/06 08:32:22;;;;;;;1.90;0.80;;;17.20;99.90;;;;;;5117865;28;20178;-41
2022/07/06 08:34:48;;;;;;;0.70;0.60;;;17.20;99.90;;;;;;5118033;28;20633;-40
2022/07/06 08:37:14;;;;;;;1.97;0.70;;;17.20;99.90;;;;;;5117650;28;20254;-40
2022/07/06 08:39:39;;;;;;;5.93;2.63;;;17.30;99.90;;;;;;5117660;28;20209;-39
2022/07/06 08:42:06;;;;;;;3.93;2.27;;;17.30;99.90;;;;;;5117657;28;20681;-38
2022/07/06 08:44:35;;;;;;;13.20;3.70;;;17.30;99.90;;;;;;5117908;28;20178;-39
2022/07/06 08:47:06;;;;;;;4.67;3.23;;;17.30;99.90;;;;;;5117441;28;20206;-41
2022/07/06 08:49:33;;;;;;;1.87;1.00;;;17.30;99.90;;;;;;5117676;28;20202;-39
2022/07/06 08:51:59;;;;;;;0.73;0.70;;;17.50;99.90;;;;;;5117670;28;20178;-39
2022/07/06 08:54:26;;;;;;;1.40;0.63;;;17.60;99.90;;;;;;5117648;28;20182;-41
2022/07/06 08:56:52;;;;;;;1.67;0.77;;;17.70;99.90;;;;;;5117300;28;20193;-41
2022/07/06 08:59:18;;;;;;;3.27;0.80;;;17.80;99.90;;;;;;5117194;28;20214;-38
2022/07/06 09:01:45;;;;;;;2.87;0.47;;;17.90;99.90;;;;;;5117606;28;20194;-41
2022/07/06 09:04:13;;;;;;;3.57;0.90;;;18.00;99.90;;;;;;5117202;28;20178;-38
2022/07/06 09:06:42;;;;;;;3.17;0.90;;;18.10;99.90;;;;;;5117362;28;20209;-41
2022/07/06 09:09:10;;;;;;;2.03;0.60;;;18.20;99.90;;;;;;5117130;28;20568;-39
2022/07/06 09:11:37;;;;;;;0.40;0.40;;;18.30;99.90;;;;;;5117251;28;20263;-41
2022/07/06 09:14:03;;;;;;;3.27;0.73;;;18.50;99.90;;;;;;5117280;28;20542;-41
2022/07/06 09:16:30;;;;;;;5.50;0.80;;;18.50;99.90;;;;;;5116873;28;20665;-38
2022/07/06 09:18:56;;;;;;;1.60;0.60;;;18.60;99.90;;;;;;5116935;28;20198;-39
2022/07/06 09:21:31;;;;;;;4.23;0.80;;;18.60;99.90;;;;;;5116855;28;20552;-40
2022/07/06 09:23:59;;;;;;;0.57;0.50;;;18.80;99.90;;;;;;5117079;28;20178;-40
2022/07/06 09:26:25;;;;;;;2.57;0.70;;;19.10;99.90;;;;;;5098516;28;20202;-40
2022/07/06 09:28:51;;;;;;;0.87;0.63;;;19.40;99.90;;;;;;5116699;28;20197;-40
2022/07/06 09:31:17;;;;;;;1.83;0.90;;;19.40;99.90;;;;;;5116850;28;20174;-41
2022/07/06 09:34:01;;;;;;;2.87;0.80;;;19.20;99.90;;;;;;5117013;28;20179;-41
2022/07/06 09:36:38;;;;;;;3.57;1.20;;;19.00;99.90;;;;;;5116474;28;20242;-40
2022/07/06 09:39:26;;;;;;;1.53;0.70;;;18.90;99.90;;;;;;5116022;28;20285;-40
2022/07/06 09:41:56;;;;;;;0.87;0.50;;;18.90;99.90;;;;;;5116867;28;20220;-41
2022/07/06 09:44:29;;;;;;;1.50;0.53;;;18.90;99.90;;;;;;5116622;28;20253;-41
2022/07/06 09:46:57;;;;;;;0.83;0.50;;;18.90;99.90;;;;;;5116560;28;20203;-40
2022/07/06 09:49:23;;;;;;;0.67;0.30;;;19.10;99.90;;;;;;5116546;28;20568;-38
2022/07/06 09:51:53;;;;;;;3.70;0.50;;;19.20;99.90;;;;;;5116287;28;20174;-40
2022/07/06 09:54:18;;;;;;;0.97;0.50;;;19.50;99.90;;;;;;5116287;28;20173;-42
2022/07/06 09:56:52;;;;;;;0.70;0.70;;;19.70;99.90;;;;;;5116453;28;20249;-40
2022/07/06 09:59:23;;;;;;;1.43;0.60;;;19.80;99.90;;;;;;5116265;28;20202;-42
2022/07/06 10:01:52;;;;;;;1.20;0.53;;;19.80;99.90;;;;;;5116467;28;20220;-41
2022/07/06 10:04:19;;;;;;;1.50;0.57;;;19.60;99.90;;;;;;5116397;28;20186;-40
2022/07/06 10:06:46;;;;;;;0.97;0.60;;;19.50;99.90;;;;;;5116060;28;20226;-42
2022/07/06 10:09:14;;;;;;;1.13;0.50;;;19.60;99.90;;;;;;5116098;28;20209;-40
2022/07/06 10:12:00;;;;;;;2.50;0.60;;;19.80;99.90;;;;;;5116515;28;20622;-40
2022/07/06 10:14:28;;;;;;;1.77;0.77;;;20.10;99.90;;;;;;5116348;28;20170;-41
2022/07/06 10:16:57;;;;;;;2.33;0.53;;;20.40;99.90;;;;;;5115969;28;20181;-41
2022/07/06 10:19:23;;;;;;;1.03;0.53;;;20.50;99.90;;;;;;5116083;28;20200;-39
2022/07/06 10:21:51;;;;;;;2.63;0.50;;;20.70;99.90;;;;;;5116079;28;20226;-41
2022/07/06 10:24:19;;;;;;;1.57;0.80;;;20.80;99.90;;;;;;5115688;28;20178;-41
2022/07/06 10:26:46;;;;;;;0.77;0.60;;;20.70;99.90;;;;;;5116913;28;20669;-40
2022/07/06 10:29:11;;;;;;;1.53;0.60;;;20.90;99.90;;;;;;5116500;28;20618;-41
2022/07/06 10:31:46;;;;;;;0.80;0.50;;;21.20;99.90;;;;;;5116060;28;20212;-41
2022/07/06 10:34:14;;;;;;;2.83;0.73;;;21.40;99.90;;;;;;5116470;28;20154;-40
2022/07/06 10:36:41;;;;;;;1.10;0.63;;;21.50;99.90;;;;;;5115759;28;20189;-40
2022/07/06 10:41:52;;;;;;;1.83;0.70;;;21.50;99.90;;;;;;5117549;28;20689;-40
2022/07/06 10:44:20;;;;;;;0.63;0.60;;;21.60;99.90;;;;;;5116877;28;20173;-39
2022/07/06 10:46:56;;;;;;;3.37;0.80;;;21.70;99.90;;;;;;5116771;28;20228;-41
2022/07/06 10:49:23;;;;;;;2.20;0.80;;;21.80;99.90;;;;;;5116361;28;20546;-40
2022/07/06 10:51:49;;;;;;;3.23;0.70;;;21.90;99.90;;;;;;5115935;28;20174;-40
2022/07/06 10:54:17;;;;;;;0.77;0.50;;;21.70;99.90;;;;;;5116175;28;20652;-40
2022/07/06 10:56:46;;;;;;;1.20;0.60;;;21.70;99.90;;;;;;5118465;28;20180;-40
2022/07/06 10:59:15;;;;;;;1.57;0.60;;;21.70;99.90;;;;;;5115481;28;20202;-39
2022/07/06 11:02:14;;;;;;;0.53;0.50;;;21.70;99.90;;;;;;5115006;28;20220;-39
2022/07/06 11:04:49;;;;;;;1.73;0.70;;;21.60;99.90;;;;;;5115202;28;20162;-41
2022/07/06 11:07:19;;;;;;;4.13;0.73;;;21.50;99.90;;;;;;5115030;28;20226;-39
2022/07/06 11:09:56;;;;;;;1.63;0.63;;;21.60;99.90;;;;;;5115008;28;20284;-40
2022/07/06 11:12:22;;;;;;;3.30;0.70;;;21.90;99.90;;;;;;5114773;28;20595;-39
2022/07/06 11:14:50;;;;;;;2.17;0.70;;;21.80;99.90;;;;;;5114734;28;20228;-41
2022/07/06 11:17:16;;;;;;;0.83;0.57;;;21.70;99.90;;;;;;5116782;28;20177;-38
2022/07/06 11:19:58;;;;;;;1.93;0.80;;;21.70;99.90;;;;;;5114550;28;20193;-39
2022/07/06 11:22:26;;;;;;;2.30;0.80;;;21.70;99.90;;;;;;5114713;28;20174;-39
2022/07/06 11:24:52;;;;;;;1.77;0.73;;;21.70;99.90;;;;;;5114462;28;20178;-37
2022/07/06 11:27:18;;;;;;;2.17;0.80;;;21.90;99.90;;;;;;5114383;28;20704;-39
2022/07/06 11:29:45;;;;;;;0.97;0.60;;;21.70;99.90;;;;;;5114337;28;20186;-39
2022/07/06 11:32:11;;;;;;;1.43;0.60;;;21.70;99.90;;;;;;5114755;28;20600;-41
2022/07/06 11:34:40;;;;;;;1.67;0.60;;;21.90;99.90;;;;;;5114665;28;20174;-39
2022/07/06 11:37:09;;;;;;;0.50;0.50;;;22.10;99.90;;;;;;5114892;28;20254;-39
2022/07/06 11:39:36;;;;;;;2.53;0.50;;;22.10;99.90;;;;;;5114150;28;20201;-40
2022/07/06 11:42:06;;;;;;;3.07;0.70;;;22.10;99.90;;;;;;5114314;28;20178;-41
2022/07/06 11:44:32;;;;;;;2.17;0.67;;;22.20;99.90;;;;;;5114449;28;20189;-41
2022/07/06 11:47:00;;;;;;;4.83;1.37;;;22.20;99.90;;;;;;5114844;28;20555;-39
2022/07/06 11:49:26;;;;;;;1.20;0.60;;;22.00;99.90;;;;;;5114326;28;20275;-41
2022/07/06 11:51:52;;;;;;;3.83;0.60;;;22.00;99.90;;;;;;5114529;28;20228;-39
2022/07/06 11:54:19;;;;;;;0.97;0.60;;;22.10;99.90;;;;;;5095829;28;20217;-40
2022/07/06 11:56:53;;;;;;;0.77;0.60;;;22.00;99.90;;;;;;5114357;28;20185;-41
2022/07/06 11:59:27;;;;;;;2.40;0.90;;;21.90;99.90;;;;;;5113943;28;20189;-40
2022/07/06 12:02:00;;;;;;;5.13;0.53;;;21.80;99.90;;;;;;5114116;28;20177;-38
2022/07/06 12:04:25;;;;;;;2.37;0.77;;;21.70;99.90;;;;;;5113987;28;20504;-40
2022/07/06 12:06:51;;;;;;;2.37;0.57;;;21.70;99.90;;;;;;5114339;28;20209;-39
2022/07/06 12:09:20;;;;;;;1.83;0.70;;;21.70;99.90;;;;;;5114197;28;20231;-40
2022/07/06 12:11:46;;;;;;;1.23;0.50;;;21.70;99.90;;;;;;5114284;28;20210;-39
2022/07/06 12:14:15;;;;;;;3.03;1.00;;;21.90;99.90;;;;;;5113985;28;20657;-41
2022/07/06 12:16:41;;;;;;;1.00;0.40;;;22.10;99.90;;;;;;5113995;28;20178;-40
2022/07/06 12:19:07;;;;;;;2.17;0.70;;;22.00;99.90;;;;;;5114020;28;20293;-40
2022/07/06 12:21:34;;;;;;;1.13;0.60;;;22.20;99.90;;;;;;5114112;28;20186;-40
2022/07/06 12:24:00;;;;;;;1.10;0.70;;;22.40;99.90;;;;;;5113893;28;20184;-39
2022/07/06 12:26:30;;;;;;;2.50;0.70;;;22.60;99.90;;;;;;5095455;28;20206;-41
2022/07/06 12:29:09;;;;;;;1.67;0.70;;;22.60;99.90;;;;;;5114063;28;20198;-41
2022/07/06 12:31:38;;;;;;;0.60;0.60;;;22.70;99.90;;;;;;5114993;28;20511;-39
2022/07/06 12:34:05;;;;;;;2.63;0.90;;;22.80;99.90;;;;;;5114159;28;20182;-39
2022/07/06 12:36:45;;;;;;;3.17;0.83;;;22.90;99.90;;;;;;5115274;28;20194;-39
2022/07/06 12:39:13;;;;;;;2.03;0.63;;;23.00;99.90;;;;;;5113857;28;20205;-41
2022/07/06 12:41:45;;;;;;;1.30;0.70;;;23.00;99.90;;;;;;5113620;28;20178;-40
2022/07/06 12:44:11;;;;;;;6.47;0.80;;;23.00;99.90;;;;;;5113918;28;20182;-36
2022/07/06 12:46:39;;;;;;;1.40;0.60;;;23.00;99.90;;;;;;5113451;28;20209;-37
2022/07/06 12:49:22;;;;;;;1.40;0.63;;;23.10;99.90;;;;;;5113705;28;20197;-38
2022/07/06 12:51:52;;;;;;;1.60;0.70;;;23.30;99.90;;;;;;5113847;28;20170;-39
2022/07/06 12:54:19;;;;;;;1.47;0.70;;;23.40;99.90;;;;;;5113680;28;20583;-40